WZZ806 EGGW-LIMC
Flight info
| Callsign | WZZ806 |
|---|---|
| Flight time | 1h 40m |
| Altitude | 37000 |
| Route | MATC2C MATCH Q295 BRAIN P44 DAGGA M85 ITVIP L10 DVR UL9 KONAN KOK CIV SUTAL GTQ OBORN DEVDI BASGO Z424 RIXUV RIXU3E |
| Aircraft | A321/M-SDE3FGHIRWY/LB1 |
Departure
| Time | 2026-05-07 20:03 |
|---|---|
| Airport | London Luton Airport (EGGW) |
Arrival
| Time | 2026-05-07 21:43 |
|---|---|
| Airport | Milan Malpensa International Airport (LIMC) |
| Time | Latitude | Longitude | Altitude | Speed | Heading |
|---|---|---|---|---|---|
| 2026-05-07 19:25 | 51.88100 | -0.37280 | 509 ft | 0 kts | 341° |
| 2026-05-07 19:53 | 51.88098 | -0.37278 | 508 ft | 3 kts | 342° |
| 2026-05-07 19:53 | 51.88072 | -0.37269 | 508 ft | 4 kts | 358° |
| 2026-05-07 19:54 | 51.88047 | -0.37273 | 508 ft | 4 kts | 24° |
| 2026-05-07 19:54 | 51.88027 | -0.37296 | 508 ft | 4 kts | 59° |
| 2026-05-07 19:54 | 51.88021 | -0.37313 | 508 ft | 0 kts | 72° |
| 2026-05-07 19:58 | 51.88022 | -0.37310 | 508 ft | 1 kts | 71° |
| 2026-05-07 19:58 | 51.88033 | -0.37259 | 498 ft | 11 kts | 70° |
| 2026-05-07 19:59 | 51.88017 | -0.37141 | 508 ft | 12 kts | 149° |
| 2026-05-07 19:59 | 51.87934 | -0.37088 | 509 ft | 13 kts | 161° |
| 2026-05-07 19:59 | 51.87848 | -0.37044 | 512 ft | 12 kts | 162° |
| 2026-05-07 19:59 | 51.87783 | -0.37007 | 516 ft | 8 kts | 160° |
| 2026-05-07 20:00 | 51.87712 | -0.36969 | 521 ft | 14 kts | 162° |
| 2026-05-07 20:00 | 51.87630 | -0.36986 | 522 ft | 14 kts | 234° |
| 2026-05-07 20:00 | 51.87600 | -0.37143 | 522 ft | 16 kts | 255° |
| 2026-05-07 20:00 | 51.87576 | -0.37327 | 522 ft | 17 kts | 266° |
| 2026-05-07 20:01 | 51.87531 | -0.37477 | 521 ft | 17 kts | 212° |
| 2026-05-07 20:01 | 51.87483 | -0.37633 | 523 ft | 15 kts | 252° |
| 2026-05-07 20:01 | 51.87452 | -0.37806 | 523 ft | 17 kts | 256° |
| 2026-05-07 20:01 | 51.87420 | -0.38001 | 524 ft | 18 kts | 241° |
| 2026-05-07 20:02 | 51.87308 | -0.38099 | 522 ft | 19 kts | 194° |
| 2026-05-07 20:02 | 51.87262 | -0.38005 | 524 ft | 12 kts | 75° |
| 2026-05-07 20:02 | 51.87267 | -0.37980 | 524 ft | 2 kts | 75° |
| 2026-05-07 20:02 | 51.87308 | -0.37732 | 523 ft | 59 kts | 75° |
| 2026-05-07 20:03 | 51.87485 | -0.36709 | 526 ft | 126 kts | 75° |
| 2026-05-07 20:03 | 51.87760 | -0.35101 | 758 ft | 157 kts | 76° |
| 2026-05-07 20:03 | 51.88032 | -0.33421 | 1529 ft | 155 kts | 77° |
| 2026-05-07 20:03 | 51.88314 | -0.31722 | 2234 ft | 157 kts | 77° |
| 2026-05-07 20:04 | 51.88606 | -0.30021 | 2725 ft | 161 kts | 78° |
| 2026-05-07 20:04 | 51.88931 | -0.28152 | 2962 ft | 183 kts | 77° |
| 2026-05-07 20:04 | 51.89299 | -0.26034 | 3169 ft | 207 kts | 76° |
| 2026-05-07 20:04 | 51.89551 | -0.23640 | 3348 ft | 227 kts | 96° |
| 2026-05-07 20:05 | 51.88950 | -0.21200 | 3526 ft | 247 kts | 133° |
| 2026-05-07 20:05 | 51.87498 | -0.19668 | 4059 ft | 256 kts | 160° |
| 2026-05-07 20:05 | 51.85822 | -0.18589 | 4750 ft | 263 kts | 158° |
| 2026-05-07 20:05 | 51.84123 | -0.17391 | 4954 ft | 266 kts | 156° |
| 2026-05-07 20:06 | 51.82432 | -0.16150 | 4999 ft | 266 kts | 156° |
| 2026-05-07 20:06 | 51.80766 | -0.14915 | 4984 ft | 266 kts | 156° |
| 2026-05-07 20:06 | 51.79081 | -0.13672 | 4981 ft | 266 kts | 156° |
| 2026-05-07 20:06 | 51.77392 | -0.12395 | 5347 ft | 269 kts | 150° |
| 2026-05-07 20:07 | 51.75999 | -0.10371 | 6156 ft | 273 kts | 123° |
| 2026-05-07 20:07 | 51.75340 | -0.07506 | 6891 ft | 277 kts | 95° |
| 2026-05-07 20:07 | 51.75469 | -0.04390 | 7618 ft | 281 kts | 82° |
| 2026-05-07 20:07 | 51.75740 | -0.01240 | 8358 ft | 285 kts | 82° |
| 2026-05-07 20:08 | 51.76018 | 0.01951 | 9094 ft | 289 kts | 83° |
| 2026-05-07 20:08 | 51.76296 | 0.05196 | 9845 ft | 294 kts | 83° |
| 2026-05-07 20:08 | 51.76573 | 0.08510 | 10343 ft | 306 kts | 84° |
| 2026-05-07 20:08 | 51.76862 | 0.12050 | 10499 ft | 329 kts | 84° |
| 2026-05-07 20:09 | 51.77166 | 0.15793 | 10623 ft | 352 kts | 84° |
| 2026-05-07 20:09 | 51.77492 | 0.19818 | 10827 ft | 369 kts | 84° |
| 2026-05-07 20:09 | 51.77829 | 0.23973 | 11378 ft | 375 kts | 84° |
| 2026-05-07 20:10 | 51.78521 | 0.32424 | 12680 ft | 383 kts | 84° |
| 2026-05-07 20:10 | 51.78870 | 0.36710 | 13340 ft | 386 kts | 84° |
| 2026-05-07 20:10 | 51.79100 | 0.39567 | 13769 ft | 389 kts | 84° |
| 2026-05-07 20:10 | 51.79448 | 0.43928 | 14359 ft | 392 kts | 84° |
| 2026-05-07 20:11 | 51.79908 | 0.49777 | 15127 ft | 397 kts | 84° |
| 2026-05-07 20:11 | 51.80144 | 0.52785 | 15521 ft | 400 kts | 84° |
| 2026-05-07 20:11 | 51.80609 | 0.58729 | 16292 ft | 405 kts | 84° |
| 2026-05-07 20:11 | 51.80846 | 0.61734 | 16686 ft | 407 kts | 84° |
| 2026-05-07 20:12 | 51.81199 | 0.66300 | 17268 ft | 411 kts | 85° |
| 2026-05-07 20:12 | 51.81088 | 0.70907 | 17798 ft | 412 kts | 105° |
| 2026-05-07 20:12 | 51.79993 | 0.75173 | 18326 ft | 413 kts | 123° |
| 2026-05-07 20:12 | 51.78223 | 0.78818 | 18793 ft | 414 kts | 137° |
| 2026-05-07 20:13 | 51.75971 | 0.81736 | 19263 ft | 414 kts | 150° |
| 2026-05-07 20:13 | 51.73365 | 0.83701 | 19727 ft | 414 kts | 163° |
| 2026-05-07 20:13 | 51.70636 | 0.85090 | 20011 ft | 416 kts | 165° |
| 2026-05-07 20:13 | 51.67875 | 0.86457 | 20080 ft | 415 kts | 165° |
| 2026-05-07 20:14 | 51.65103 | 0.87806 | 20087 ft | 415 kts | 165° |
| 2026-05-07 20:14 | 51.62327 | 0.89144 | 20085 ft | 415 kts | 165° |
| 2026-05-07 20:14 | 51.59557 | 0.90475 | 20086 ft | 415 kts | 165° |
| 2026-05-07 20:14 | 51.56791 | 0.91805 | 20087 ft | 415 kts | 165° |
| 2026-05-07 20:15 | 51.54022 | 0.93140 | 20086 ft | 415 kts | 165° |
| 2026-05-07 20:15 | 51.51249 | 0.94480 | 20086 ft | 415 kts | 165° |
| 2026-05-07 20:15 | 51.48484 | 0.95816 | 20086 ft | 416 kts | 165° |
| 2026-05-07 20:15 | 51.45712 | 0.97155 | 20086 ft | 416 kts | 165° |
| 2026-05-07 20:16 | 51.42941 | 0.98497 | 20086 ft | 416 kts | 165° |
| 2026-05-07 20:16 | 51.40162 | 0.99841 | 20088 ft | 416 kts | 165° |
| 2026-05-07 20:16 | 51.37427 | 1.01158 | 20090 ft | 416 kts | 165° |
| 2026-05-07 20:16 | 51.34653 | 1.02508 | 20091 ft | 416 kts | 163° |
| 2026-05-07 20:17 | 51.31979 | 1.04310 | 20089 ft | 418 kts | 154° |
| 2026-05-07 20:17 | 51.29501 | 1.06774 | 20094 ft | 420 kts | 145° |
| 2026-05-07 20:17 | 51.27290 | 1.09864 | 20090 ft | 423 kts | 135° |
| 2026-05-07 20:17 | 51.25408 | 1.13511 | 20089 ft | 425 kts | 126° |
| 2026-05-07 20:18 | 51.23800 | 1.17474 | 20264 ft | 428 kts | 124° |
| 2026-05-07 20:18 | 51.22177 | 1.21481 | 20778 ft | 431 kts | 124° |
| 2026-05-07 20:18 | 51.20556 | 1.25442 | 21243 ft | 433 kts | 124° |
| 2026-05-07 20:18 | 51.18878 | 1.29534 | 21714 ft | 437 kts | 124° |
| 2026-05-07 20:19 | 51.17450 | 1.33753 | 22145 ft | 441 kts | 115° |
| 2026-05-07 20:19 | 51.16434 | 1.38399 | 22583 ft | 446 kts | 105° |
| 2026-05-07 20:19 | 51.15906 | 1.43301 | 23008 ft | 450 kts | 96° |
| 2026-05-07 20:19 | 51.15689 | 1.48309 | 23438 ft | 453 kts | 95° |
| 2026-05-07 20:20 | 51.15460 | 1.53338 | 23830 ft | 456 kts | 95° |
| 2026-05-07 20:20 | 51.15212 | 1.58392 | 24193 ft | 459 kts | 95° |
| 2026-05-07 20:20 | 51.14953 | 1.63476 | 24551 ft | 461 kts | 95° |
| 2026-05-07 20:20 | 51.14690 | 1.68587 | 24902 ft | 464 kts | 96° |
| 2026-05-07 20:21 | 51.14429 | 1.73645 | 25247 ft | 466 kts | 95° |
| 2026-05-07 20:21 | 51.14166 | 1.78824 | 25586 ft | 469 kts | 95° |
| 2026-05-07 20:21 | 51.13903 | 1.84011 | 25922 ft | 471 kts | 95° |
| 2026-05-07 20:21 | 51.13637 | 1.89228 | 26261 ft | 474 kts | 95° |
| 2026-05-07 20:22 | 51.13366 | 1.94476 | 26603 ft | 476 kts | 96° |
| 2026-05-07 20:22 | 51.13091 | 1.99748 | 26942 ft | 479 kts | 96° |
| 2026-05-07 20:22 | 51.12816 | 2.05041 | 27280 ft | 481 kts | 95° |
| 2026-05-07 20:22 | 51.12538 | 2.10372 | 27629 ft | 483 kts | 96° |
| 2026-05-07 20:23 | 51.12255 | 2.15707 | 28094 ft | 482 kts | 96° |
| 2026-05-07 20:23 | 51.11968 | 2.21029 | 28564 ft | 481 kts | 96° |
| 2026-05-07 20:23 | 51.11679 | 2.26269 | 29017 ft | 480 kts | 96° |
| 2026-05-07 20:23 | 51.11383 | 2.31569 | 29476 ft | 480 kts | 96° |
| 2026-05-07 20:24 | 51.11084 | 2.36858 | 29935 ft | 479 kts | 96° |
| 2026-05-07 20:24 | 51.10785 | 2.42148 | 30344 ft | 478 kts | 96° |
| 2026-05-07 20:24 | 51.10492 | 2.47377 | 30718 ft | 478 kts | 96° |
| 2026-05-07 20:24 | 51.10194 | 2.52642 | 31085 ft | 477 kts | 96° |
| 2026-05-07 20:25 | 51.09860 | 2.57902 | 31451 ft | 476 kts | 99° |
| 2026-05-07 20:25 | 51.09141 | 2.63044 | 31808 ft | 474 kts | 109° |
| 2026-05-07 20:25 | 51.07953 | 2.67927 | 32164 ft | 472 kts | 117° |
| 2026-05-07 20:25 | 51.06343 | 2.72444 | 32524 ft | 469 kts | 126° |
| 2026-05-07 20:26 | 51.04488 | 2.76707 | 32871 ft | 468 kts | 127° |
| 2026-05-07 20:26 | 51.02632 | 2.80964 | 33226 ft | 467 kts | 127° |
| 2026-05-07 20:26 | 51.00807 | 2.85155 | 33580 ft | 467 kts | 127° |
| 2026-05-07 20:26 | 50.98941 | 2.89449 | 33944 ft | 466 kts | 127° |
| 2026-05-07 20:27 | 50.97099 | 2.93688 | 34252 ft | 466 kts | 127° |
| 2026-05-07 20:27 | 50.95282 | 2.97864 | 34521 ft | 465 kts | 127° |
| 2026-05-07 20:27 | 50.93442 | 3.02086 | 34779 ft | 465 kts | 127° |
| 2026-05-07 20:27 | 50.91598 | 3.06308 | 35057 ft | 465 kts | 127° |
| 2026-05-07 20:28 | 50.89751 | 3.10528 | 35319 ft | 465 kts | 127° |
| 2026-05-07 20:28 | 50.87906 | 3.14735 | 35578 ft | 465 kts | 127° |
| 2026-05-07 20:28 | 50.86058 | 3.18939 | 35838 ft | 464 kts | 127° |
| 2026-05-07 20:28 | 50.84208 | 3.23140 | 36092 ft | 464 kts | 127° |
| 2026-05-07 20:29 | 50.82356 | 3.27333 | 36336 ft | 464 kts | 127° |
| 2026-05-07 20:29 | 50.80526 | 3.31463 | 36572 ft | 464 kts | 127° |
| 2026-05-07 20:29 | 50.78667 | 3.35654 | 36801 ft | 464 kts | 127° |
| 2026-05-07 20:29 | 50.76816 | 3.39832 | 37013 ft | 464 kts | 127° |
| 2026-05-07 20:30 | 50.74956 | 3.44032 | 37078 ft | 465 kts | 127° |
| 2026-05-07 20:30 | 50.71235 | 3.52407 | 37082 ft | 465 kts | 127° |
| 2026-05-07 20:31 | 50.67503 | 3.60763 | 37081 ft | 465 kts | 127° |
| 2026-05-07 20:31 | 50.63767 | 3.69097 | 37081 ft | 465 kts | 127° |
| 2026-05-07 20:32 | 50.60040 | 3.77368 | 37082 ft | 465 kts | 127° |
| 2026-05-07 20:32 | 50.56293 | 3.85720 | 37082 ft | 466 kts | 126° |
| 2026-05-07 20:33 | 50.52721 | 3.94280 | 37084 ft | 467 kts | 124° |
| 2026-05-07 20:33 | 50.49254 | 4.02897 | 37093 ft | 467 kts | 124° |
| 2026-05-07 20:34 | 50.45758 | 4.11432 | 37098 ft | 467 kts | 125° |
| 2026-05-07 20:34 | 50.42186 | 4.19980 | 37100 ft | 467 kts | 126° |
| 2026-05-07 20:35 | 50.38601 | 4.28497 | 37093 ft | 467 kts | 126° |
| 2026-05-07 20:35 | 50.35035 | 4.36962 | 37098 ft | 468 kts | 126° |
| 2026-05-07 20:36 | 50.31447 | 4.45482 | 37096 ft | 468 kts | 126° |
| 2026-05-07 20:36 | 50.27867 | 4.53984 | 37099 ft | 468 kts | 126° |
| 2026-05-07 20:37 | 50.24291 | 4.62432 | 37097 ft | 468 kts | 126° |
| 2026-05-07 20:37 | 50.20686 | 4.70893 | 37097 ft | 468 kts | 126° |
| 2026-05-07 20:38 | 50.17065 | 4.79354 | 37095 ft | 468 kts | 126° |
| 2026-05-07 20:38 | 50.13448 | 4.87805 | 37093 ft | 468 kts | 126° |
| 2026-05-07 20:39 | 50.09852 | 4.96198 | 37090 ft | 467 kts | 126° |
| 2026-05-07 20:39 | 50.06224 | 5.04630 | 37100 ft | 468 kts | 126° |
| 2026-05-07 20:40 | 50.02613 | 5.13006 | 37086 ft | 468 kts | 126° |
| 2026-05-07 20:40 | 49.98966 | 5.21405 | 37090 ft | 468 kts | 126° |
| 2026-05-07 20:41 | 49.95313 | 5.29784 | 37086 ft | 468 kts | 126° |
| 2026-05-07 20:41 | 49.91684 | 5.38093 | 37099 ft | 468 kts | 126° |
| 2026-05-07 20:42 | 49.88022 | 5.46464 | 37096 ft | 468 kts | 126° |
| 2026-05-07 20:42 | 49.84359 | 5.54813 | 37091 ft | 468 kts | 126° |
| 2026-05-07 20:43 | 49.80687 | 5.63157 | 37088 ft | 468 kts | 127° |
| 2026-05-07 20:43 | 49.76998 | 5.71489 | 37086 ft | 468 kts | 127° |
| 2026-05-07 20:44 | 49.73337 | 5.79758 | 37088 ft | 469 kts | 127° |
| 2026-05-07 20:44 | 49.69643 | 5.88070 | 37092 ft | 469 kts | 127° |
| 2026-05-07 20:45 | 49.65935 | 5.96366 | 37095 ft | 469 kts | 127° |
| 2026-05-07 20:45 | 49.62224 | 6.04666 | 37095 ft | 469 kts | 127° |
| 2026-05-07 20:46 | 49.58531 | 6.12916 | 37094 ft | 469 kts | 127° |
| 2026-05-07 20:46 | 49.54812 | 6.21167 | 37097 ft | 469 kts | 127° |
| 2026-05-07 20:47 | 49.51074 | 6.29433 | 37095 ft | 469 kts | 127° |
| 2026-05-07 20:47 | 49.46966 | 6.37170 | 37084 ft | 464 kts | 141° |
| 2026-05-07 20:48 | 49.41685 | 6.42577 | 37080 ft | 456 kts | 159° |
| 2026-05-07 20:48 | 49.35859 | 6.46540 | 37082 ft | 456 kts | 159° |
| 2026-05-07 20:49 | 49.30037 | 6.50476 | 37085 ft | 457 kts | 159° |
| 2026-05-07 20:49 | 49.24239 | 6.54393 | 37090 ft | 458 kts | 159° |
| 2026-05-07 20:50 | 49.18400 | 6.58341 | 37092 ft | 458 kts | 159° |
| 2026-05-07 20:50 | 49.13549 | 6.61618 | 37102 ft | 458 kts | 159° |
| 2026-05-07 20:51 | 49.06749 | 6.66200 | 37096 ft | 458 kts | 159° |
| 2026-05-07 20:51 | 49.01881 | 6.69458 | 37100 ft | 458 kts | 159° |
| 2026-05-07 20:52 | 48.96194 | 6.73906 | 37097 ft | 462 kts | 151° |
| 2026-05-07 20:52 | 48.90725 | 6.79027 | 37098 ft | 462 kts | 152° |
| 2026-05-07 20:53 | 48.85227 | 6.84152 | 37099 ft | 462 kts | 152° |
| 2026-05-07 20:53 | 48.79746 | 6.89253 | 37095 ft | 462 kts | 152° |
| 2026-05-07 20:54 | 48.74255 | 6.94354 | 37093 ft | 463 kts | 152° |
| 2026-05-07 20:54 | 48.68786 | 6.99416 | 37097 ft | 463 kts | 152° |
| 2026-05-07 20:55 | 48.63279 | 7.04488 | 37096 ft | 463 kts | 152° |
| 2026-05-07 20:55 | 48.57771 | 7.09556 | 37098 ft | 463 kts | 152° |
| 2026-05-07 20:56 | 48.52259 | 7.14614 | 37095 ft | 463 kts | 152° |
| 2026-05-07 20:56 | 48.46745 | 7.19531 | 37090 ft | 460 kts | 158° |
| 2026-05-07 20:57 | 48.40762 | 7.22799 | 37095 ft | 456 kts | 166° |
| 2026-05-07 20:57 | 48.34713 | 7.25716 | 37099 ft | 456 kts | 166° |
| 2026-05-07 20:58 | 48.28655 | 7.28654 | 37099 ft | 456 kts | 166° |
| 2026-05-07 20:58 | 48.22605 | 7.31575 | 37101 ft | 456 kts | 166° |
| 2026-05-07 20:59 | 48.16589 | 7.34465 | 37101 ft | 456 kts | 166° |
| 2026-05-07 20:59 | 48.10549 | 7.37359 | 37101 ft | 456 kts | 166° |
| 2026-05-07 21:00 | 48.04492 | 7.40247 | 37100 ft | 456 kts | 166° |
| 2026-05-07 21:00 | 47.98439 | 7.43127 | 37098 ft | 456 kts | 166° |
| 2026-05-07 21:01 | 47.92428 | 7.45988 | 37092 ft | 456 kts | 166° |
| 2026-05-07 21:01 | 47.86377 | 7.48864 | 37082 ft | 456 kts | 166° |
| 2026-05-07 21:02 | 47.80319 | 7.51738 | 37075 ft | 456 kts | 166° |
| 2026-05-07 21:02 | 47.74266 | 7.54615 | 37080 ft | 457 kts | 164° |
| 2026-05-07 21:03 | 47.68423 | 7.58317 | 37074 ft | 459 kts | 160° |
| 2026-05-07 21:03 | 47.62554 | 7.62136 | 37072 ft | 459 kts | 160° |
| 2026-05-07 21:04 | 47.56701 | 7.65915 | 37067 ft | 459 kts | 160° |
| 2026-05-07 21:04 | 47.50832 | 7.69686 | 37066 ft | 459 kts | 161° |
| 2026-05-07 21:05 | 47.44956 | 7.73467 | 37066 ft | 459 kts | 161° |
| 2026-05-07 21:05 | 47.39089 | 7.77236 | 37060 ft | 459 kts | 161° |
| 2026-05-07 21:06 | 47.33220 | 7.80994 | 37063 ft | 460 kts | 161° |
| 2026-05-07 21:06 | 47.27383 | 7.84716 | 37064 ft | 460 kts | 161° |
| 2026-05-07 21:07 | 47.21495 | 7.88467 | 37065 ft | 460 kts | 161° |
| 2026-05-07 21:07 | 47.15599 | 7.92197 | 37070 ft | 461 kts | 161° |
| 2026-05-07 21:08 | 47.09697 | 7.95945 | 37057 ft | 461 kts | 161° |
| 2026-05-07 21:08 | 47.03828 | 7.99656 | 37069 ft | 461 kts | 161° |
| 2026-05-07 21:09 | 46.97928 | 8.03369 | 37067 ft | 462 kts | 161° |
| 2026-05-07 21:09 | 46.92013 | 8.07086 | 37065 ft | 462 kts | 161° |
| 2026-05-07 21:10 | 46.86105 | 8.10794 | 37064 ft | 462 kts | 161° |
| 2026-05-07 21:10 | 46.80195 | 8.14492 | 37066 ft | 461 kts | 161° |
| 2026-05-07 21:11 | 46.74295 | 8.18180 | 37006 ft | 463 kts | 161° |
| 2026-05-07 21:11 | 46.71321 | 8.20034 | 36226 ft | 467 kts | 161° |
| 2026-05-07 21:11 | 46.65336 | 8.23753 | 34765 ft | 470 kts | 161° |
| 2026-05-07 21:12 | 46.62306 | 8.25632 | 33882 ft | 475 kts | 161° |
| 2026-05-07 21:12 | 46.59270 | 8.27517 | 33238 ft | 471 kts | 161° |
| 2026-05-07 21:12 | 46.56247 | 8.29394 | 32338 ft | 474 kts | 161° |
| 2026-05-07 21:12 | 46.53207 | 8.31277 | 31446 ft | 476 kts | 161° |
| 2026-05-07 21:13 | 46.50167 | 8.33158 | 30327 ft | 475 kts | 161° |
| 2026-05-07 21:13 | 46.47115 | 8.35041 | 28966 ft | 475 kts | 161° |
| 2026-05-07 21:13 | 46.44101 | 8.36906 | 28018 ft | 466 kts | 161° |
| 2026-05-07 21:13 | 46.41175 | 8.38718 | 26997 ft | 460 kts | 161° |
| 2026-05-07 21:14 | 46.38245 | 8.40528 | 25879 ft | 456 kts | 160° |
| 2026-05-07 21:14 | 46.35328 | 8.42322 | 24812 ft | 451 kts | 160° |
| 2026-05-07 21:14 | 46.32463 | 8.44081 | 24072 ft | 441 kts | 160° |
| 2026-05-07 21:14 | 46.29671 | 8.45778 | 23345 ft | 431 kts | 162° |
| 2026-05-07 21:15 | 46.26821 | 8.47057 | 22624 ft | 425 kts | 170° |
| 2026-05-07 21:15 | 46.23954 | 8.47734 | 21959 ft | 419 kts | 177° |
| 2026-05-07 21:15 | 46.21052 | 8.48135 | 21287 ft | 418 kts | 178° |
| 2026-05-07 21:15 | 46.18164 | 8.48536 | 20617 ft | 415 kts | 177° |
| 2026-05-07 21:16 | 46.15299 | 8.48940 | 19951 ft | 413 kts | 177° |
| 2026-05-07 21:16 | 46.12438 | 8.49377 | 19273 ft | 413 kts | 174° |
| 2026-05-07 21:16 | 46.09634 | 8.50311 | 18622 ft | 415 kts | 164° |
| 2026-05-07 21:16 | 46.06961 | 8.51756 | 18404 ft | 404 kts | 161° |
| 2026-05-07 21:17 | 46.04381 | 8.53171 | 18275 ft | 391 kts | 162° |
| 2026-05-07 21:17 | 46.01877 | 8.54520 | 18136 ft | 378 kts | 162° |
| 2026-05-07 21:17 | 45.99454 | 8.55808 | 18000 ft | 364 kts | 162° |
| 2026-05-07 21:17 | 45.97111 | 8.57047 | 17853 ft | 351 kts | 162° |
| 2026-05-07 21:18 | 45.95000 | 8.58167 | 17730 ft | 340 kts | 162° |
| 2026-05-07 21:18 | 45.92811 | 8.59333 | 17482 ft | 332 kts | 162° |
| 2026-05-07 21:18 | 45.90696 | 8.60499 | 17223 ft | 328 kts | 158° |
| 2026-05-07 21:18 | 45.88727 | 8.62164 | 16960 ft | 329 kts | 145° |
| 2026-05-07 21:19 | 45.86939 | 8.64232 | 16574 ft | 330 kts | 143° |
| 2026-05-07 21:19 | 45.85157 | 8.66305 | 16093 ft | 330 kts | 143° |
| 2026-05-07 21:19 | 45.83378 | 8.68371 | 15747 ft | 327 kts | 143° |
| 2026-05-07 21:19 | 45.81599 | 8.70430 | 15301 ft | 327 kts | 143° |
| 2026-05-07 21:20 | 45.79841 | 8.72462 | 14959 ft | 323 kts | 143° |
| 2026-05-07 21:20 | 45.78095 | 8.74481 | 14587 ft | 321 kts | 143° |
| 2026-05-07 21:20 | 45.76331 | 8.76435 | 14211 ft | 318 kts | 149° |
| 2026-05-07 21:20 | 45.74407 | 8.77968 | 13851 ft | 315 kts | 154° |
| 2026-05-07 21:21 | 45.72477 | 8.79445 | 13460 ft | 314 kts | 154° |
| 2026-05-07 21:21 | 45.70567 | 8.80913 | 12963 ft | 310 kts | 153° |
| 2026-05-07 21:21 | 45.68672 | 8.82372 | 12409 ft | 307 kts | 153° |
| 2026-05-07 21:21 | 45.66796 | 8.83816 | 11871 ft | 304 kts | 153° |
| 2026-05-07 21:22 | 45.64950 | 8.85240 | 11592 ft | 296 kts | 153° |
| 2026-05-07 21:22 | 45.63187 | 8.86594 | 11460 ft | 286 kts | 153° |
| 2026-05-07 21:22 | 45.61405 | 8.87746 | 11191 ft | 277 kts | 165° |
| 2026-05-07 21:22 | 45.59527 | 8.88320 | 10732 ft | 274 kts | 170° |
| 2026-05-07 21:23 | 45.57664 | 8.88819 | 10334 ft | 270 kts | 170° |
| 2026-05-07 21:23 | 45.55838 | 8.89308 | 10002 ft | 266 kts | 169° |
| 2026-05-07 21:23 | 45.54024 | 8.89796 | 9663 ft | 264 kts | 169° |
| 2026-05-07 21:23 | 45.52242 | 8.90279 | 9345 ft | 263 kts | 169° |
| 2026-05-07 21:24 | 45.50443 | 8.90767 | 9030 ft | 262 kts | 169° |
| 2026-05-07 21:24 | 45.48671 | 8.91251 | 8824 ft | 256 kts | 169° |
| 2026-05-07 21:24 | 45.46928 | 8.91728 | 8531 ft | 254 kts | 169° |
| 2026-05-07 21:24 | 45.45192 | 8.92201 | 8206 ft | 253 kts | 169° |
| 2026-05-07 21:25 | 45.43466 | 8.92670 | 7892 ft | 252 kts | 169° |
| 2026-05-07 21:25 | 45.41749 | 8.93135 | 7599 ft | 251 kts | 169° |
| 2026-05-07 21:25 | 45.40034 | 8.93595 | 7288 ft | 250 kts | 169° |
| 2026-05-07 21:25 | 45.38346 | 8.94049 | 6988 ft | 249 kts | 169° |
| 2026-05-07 21:26 | 45.36644 | 8.94508 | 6681 ft | 248 kts | 169° |
| 2026-05-07 21:26 | 45.34957 | 8.94965 | 6381 ft | 246 kts | 169° |
| 2026-05-07 21:26 | 45.33267 | 8.95422 | 6065 ft | 245 kts | 169° |
| 2026-05-07 21:26 | 45.31608 | 8.95873 | 5923 ft | 238 kts | 168° |
| 2026-05-07 21:27 | 45.29990 | 8.96314 | 5867 ft | 240 kts | 168° |
| 2026-05-07 21:27 | 45.28350 | 8.96761 | 5767 ft | 240 kts | 168° |
| 2026-05-07 21:27 | 45.26707 | 8.97208 | 5639 ft | 239 kts | 168° |
| 2026-05-07 21:27 | 45.25073 | 8.97653 | 5508 ft | 239 kts | 168° |
| 2026-05-07 21:28 | 45.23441 | 8.98099 | 5384 ft | 238 kts | 168° |
| 2026-05-07 21:28 | 45.21821 | 8.98540 | 5254 ft | 236 kts | 168° |
| 2026-05-07 21:28 | 45.20207 | 8.98975 | 5132 ft | 235 kts | 168° |
| 2026-05-07 21:28 | 45.18617 | 8.99399 | 5012 ft | 235 kts | 168° |
| 2026-05-07 21:29 | 45.17009 | 8.99829 | 4893 ft | 235 kts | 168° |
| 2026-05-07 21:29 | 45.15402 | 9.00258 | 4763 ft | 234 kts | 168° |
| 2026-05-07 21:29 | 45.13804 | 9.00685 | 4635 ft | 234 kts | 168° |
| 2026-05-07 21:29 | 45.12199 | 9.01113 | 4511 ft | 233 kts | 168° |
| 2026-05-07 21:30 | 45.10613 | 9.01538 | 4395 ft | 227 kts | 168° |
| 2026-05-07 21:30 | 45.09591 | 9.01811 | 4325 ft | 225 kts | 168° |
| 2026-05-07 21:30 | 45.07534 | 9.01986 | 4136 ft | 225 kts | 194° |
| 2026-05-07 21:30 | 45.06214 | 9.00851 | 4020 ft | 227 kts | 228° |
| 2026-05-07 21:31 | 45.05683 | 8.99586 | 4002 ft | 227 kts | 251° |
| 2026-05-07 21:31 | 45.05357 | 8.97392 | 4012 ft | 229 kts | 259° |
| 2026-05-07 21:31 | 45.05063 | 8.95177 | 4011 ft | 229 kts | 259° |
| 2026-05-07 21:31 | 45.04762 | 8.92968 | 4009 ft | 229 kts | 259° |
| 2026-05-07 21:32 | 45.04817 | 8.90741 | 4001 ft | 228 kts | 290° |
| 2026-05-07 21:32 | 45.05712 | 8.88922 | 4004 ft | 227 kts | 323° |
| 2026-05-07 21:32 | 45.07143 | 8.88072 | 4019 ft | 225 kts | 350° |
| 2026-05-07 21:32 | 45.08663 | 8.87671 | 4008 ft | 224 kts | 351° |
| 2026-05-07 21:33 | 45.10163 | 8.87274 | 4005 ft | 215 kts | 350° |
| 2026-05-07 21:33 | 45.11626 | 8.86882 | 4032 ft | 214 kts | 350° |
| 2026-05-07 21:33 | 45.13093 | 8.86488 | 4017 ft | 214 kts | 350° |
| 2026-05-07 21:33 | 45.14556 | 8.86093 | 4008 ft | 214 kts | 350° |
| 2026-05-07 21:34 | 45.16021 | 8.85697 | 4008 ft | 214 kts | 350° |
| 2026-05-07 21:34 | 45.17488 | 8.85300 | 4007 ft | 214 kts | 350° |
| 2026-05-07 21:34 | 45.18954 | 8.84902 | 4006 ft | 214 kts | 350° |
| 2026-05-07 21:34 | 45.20418 | 8.84504 | 4004 ft | 214 kts | 350° |
| 2026-05-07 21:35 | 45.21880 | 8.84107 | 4008 ft | 214 kts | 350° |
| 2026-05-07 21:35 | 45.23347 | 8.83708 | 4006 ft | 214 kts | 350° |
| 2026-05-07 21:35 | 45.24790 | 8.83322 | 4025 ft | 214 kts | 352° |
| 2026-05-07 21:35 | 45.26280 | 8.83235 | 4029 ft | 214 kts | 358° |
| 2026-05-07 21:36 | 45.27762 | 8.82996 | 4029 ft | 214 kts | 352° |
| 2026-05-07 21:36 | 45.29227 | 8.82624 | 4025 ft | 214 kts | 350° |
| 2026-05-07 21:36 | 45.30688 | 8.82227 | 4033 ft | 214 kts | 350° |
| 2026-05-07 21:36 | 45.32114 | 8.81836 | 4025 ft | 199 kts | 350° |
| 2026-05-07 21:37 | 45.33440 | 8.81473 | 4029 ft | 194 kts | 350° |
| 2026-05-07 21:37 | 45.34763 | 8.81112 | 4031 ft | 193 kts | 350° |
| 2026-05-07 21:37 | 45.36083 | 8.80752 | 4032 ft | 193 kts | 350° |
| 2026-05-07 21:37 | 45.37401 | 8.80391 | 4036 ft | 193 kts | 350° |
| 2026-05-07 21:38 | 45.38720 | 8.80031 | 4030 ft | 193 kts | 350° |
| 2026-05-07 21:38 | 45.40037 | 8.79670 | 4029 ft | 193 kts | 350° |
| 2026-05-07 21:38 | 45.41356 | 8.79309 | 4034 ft | 192 kts | 350° |
| 2026-05-07 21:38 | 45.42638 | 8.78957 | 4029 ft | 184 kts | 349° |
| 2026-05-07 21:39 | 45.43893 | 8.78613 | 3998 ft | 183 kts | 349° |
| 2026-05-07 21:39 | 45.45145 | 8.78270 | 3916 ft | 183 kts | 349° |
| 2026-05-07 21:39 | 45.46391 | 8.77928 | 3721 ft | 181 kts | 349° |
| 2026-05-07 21:39 | 45.47613 | 8.77593 | 3495 ft | 181 kts | 349° |
| 2026-05-07 21:40 | 45.48844 | 8.77255 | 3267 ft | 180 kts | 349° |
| 2026-05-07 21:40 | 45.50072 | 8.76918 | 3025 ft | 178 kts | 349° |
| 2026-05-07 21:40 | 45.51269 | 8.76589 | 2789 ft | 172 kts | 349° |
| 2026-05-07 21:40 | 45.52436 | 8.76268 | 2582 ft | 170 kts | 349° |
| 2026-05-07 21:41 | 45.53583 | 8.75952 | 2345 ft | 165 kts | 348° |
| 2026-05-07 21:41 | 45.54672 | 8.75653 | 2135 ft | 154 kts | 348° |
| 2026-05-07 21:41 | 45.55710 | 8.75367 | 1915 ft | 150 kts | 348° |
| 2026-05-07 21:41 | 45.56735 | 8.75085 | 1722 ft | 148 kts | 348° |
| 2026-05-07 21:42 | 45.57732 | 8.74811 | 1514 ft | 147 kts | 345° |
| 2026-05-07 21:42 | 45.58741 | 8.74545 | 1344 ft | 147 kts | 346° |
| 2026-05-07 21:42 | 45.59743 | 8.74272 | 1137 ft | 146 kts | 346° |
| 2026-05-07 21:42 | 45.60735 | 8.73993 | 963 ft | 145 kts | 347° |
| 2026-05-07 21:43 | 45.61725 | 8.73724 | 793 ft | 144 kts | 347° |
| 2026-05-07 21:43 | 45.62680 | 8.73476 | 723 ft | 126 kts | 347° |
| 2026-05-07 21:43 | 45.63321 | 8.73264 | 718 ft | 52 kts | 349° |
| 2026-05-07 21:43 | 45.63434 | 8.73237 | 716 ft | 6 kts | 352° |
| 2026-05-07 21:44 | 45.63626 | 8.73186 | 719 ft | 33 kts | 335° |
| 2026-05-07 21:44 | 45.63768 | 8.72991 | 717 ft | 27 kts | 309° |
| 2026-05-07 21:44 | 45.63877 | 8.72764 | 720 ft | 28 kts | 301° |
| 2026-05-07 21:44 | 45.63959 | 8.72563 | 717 ft | 15 kts | 280° |
| 2026-05-07 21:45 | 45.63941 | 8.72415 | 716 ft | 16 kts | 257° |
| 2026-05-07 21:45 | 45.63920 | 8.72252 | 717 ft | 17 kts | 262° |
| 2026-05-07 21:45 | 45.63913 | 8.72070 | 716 ft | 19 kts | 268° |
| 2026-05-07 21:45 | 45.63894 | 8.71882 | 716 ft | 19 kts | 240° |
| 2026-05-07 21:46 | 45.63784 | 8.71833 | 717 ft | 15 kts | 169° |
| 2026-05-07 21:46 | 45.63675 | 8.71858 | 717 ft | 17 kts | 172° |
| 2026-05-07 21:46 | 45.63556 | 8.71879 | 716 ft | 18 kts | 171° |
| 2026-05-07 21:46 | 45.63430 | 8.71913 | 719 ft | 19 kts | 163° |
| 2026-05-07 21:47 | 45.63297 | 8.71964 | 716 ft | 21 kts | 169° |
| 2026-05-07 21:47 | 45.63152 | 8.72001 | 716 ft | 22 kts | 172° |
| 2026-05-07 21:47 | 45.63003 | 8.72033 | 717 ft | 10 kts | 167° |
| 2026-05-07 21:47 | 45.63001 | 8.72034 | 717 ft | 0 kts | 166° |
| 2026-05-07 21:48 | 45.62999 | 8.72035 | 718 ft | 1 kts | 166° |
| 2026-05-07 21:48 | 45.62983 | 8.71991 | 717 ft | 11 kts | 273° |
| 2026-05-07 21:48 | 45.62983 | 8.71867 | 718 ft | 14 kts | 258° |
| 2026-05-07 21:48 | 45.62961 | 8.71721 | 716 ft | 16 kts | 258° |
| 2026-05-07 21:49 | 45.62940 | 8.71561 | 718 ft | 16 kts | 260° |
| 2026-05-07 21:49 | 45.62911 | 8.71506 | 716 ft | 6 kts | 174° |
| 2026-05-07 21:49 | 45.62869 | 8.71518 | 719 ft | 5 kts | 169° |
| 2026-05-07 21:49 | 45.62850 | 8.71524 | 717 ft | 0 kts | 168° |